Terminal Aerodrome Forecast
Issued by NWS Omaha/Valley, NE

Home | Current Version | Previous Version | Graphics & Text | Print | Product List | Glossary On
Versions: 1 2 3 4 5 6 7 8 9 10 11 12 13 14 15 16 17 18 19 20 21 22 23 24 25 26 27 28 29 30 31 32 33 34 35 36 37 38 39 40 41 42
000
FTUS43 KOAX 160809 AAA
TAFOFK
TAF AMD
KOFK 160809Z 1608/1706 30008KT 3SM SHRA BR OVC020
     FM161000 24008KT 6SM -SHRA OVC050
     FM161200 26006KT 5SM -TSRA OVC025CB
     FM161700 30010KT P6SM VCSH BKN050
     FM170000 33010KT P6SM BKN050=

USA.gov is the U.S. government's official web portal to all federal, state and local government web resources and services.